Time;durP1;ratioP1;P1;durP2;ratioP2;P2;SDS_P1;SDS_P2;PMS_P1;PMS_P2;Temp;Humidity;BMP_temperature;BMP_pressure;BME280_temperature;BME280_humidity;BME280_pressure;Samples;Min_cycle;Max_cycle;Signal;HPM_P1;HPM_P2
2024/04/12 00:01:50;;;;;;;23.90;16.13;;;13.00;99.90;;;;;;5491104;26;20634;-75
2024/04/12 00:04:20;;;;;;;29.00;16.80;;;13.00;99.90;;;;;;5475390;26;20010;-74
2024/04/12 00:07:00;;;;;;;28.27;17.08;;;13.00;99.90;;;;;;5496371;26;20024;-75
2024/04/12 00:09:29;;;;;;;28.65;17.13;;;13.00;99.90;;;;;;5500162;26;20025;-75
2024/04/12 00:12:00;;;;;;;29.35;18.48;;;13.00;99.90;;;;;;5500347;26;20454;-75
2024/04/12 00:14:27;;;;;;;27.90;16.73;;;13.00;99.90;;;;;;5500218;26;20337;-75
2024/04/12 00:16:58;;;;;;;24.50;17.13;;;13.00;99.90;;;;;;5465861;26;20022;-75
2024/04/12 00:19:25;;;;;;;33.03;20.40;;;13.00;99.90;;;;;;5503981;26;20327;-75
2024/04/12 00:21:56;;;;;;;31.90;20.70;;;13.00;99.90;;;;;;5471235;26;20049;-75
2024/04/12 00:24:24;;;;;;;39.33;22.08;;;13.00;99.90;;;;;;5509250;26;20025;-75
2024/04/12 00:26:53;;;;;;;37.38;22.02;;;13.10;99.90;;;;;;5506203;26;20057;-75
2024/04/12 00:29:36;;;;;;;45.20;24.17;;;13.00;99.90;;;;;;5503191;26;20466;-74
2024/04/12 00:32:18;;;;;;;46.00;25.55;;;13.10;99.90;;;;;;5500563;26;20021;-75
2024/04/12 00:34:51;;;;;;;45.42;24.95;;;13.10;99.90;;;;;;5504691;26;20021;-74
2024/04/12 00:37:20;;;;;;;40.53;26.05;;;13.10;99.90;;;;;;5496535;26;20034;-75
2024/04/12 00:39:49;;;;;;;45.35;24.88;;;13.00;99.90;;;;;;5498218;26;20030;-74
2024/04/12 00:42:25;;;;;;;51.78;28.23;;;13.10;99.90;;;;;;5492364;26;20026;-74
2024/04/12 00:44:57;;;;;;;47.72;28.27;;;13.10;99.90;;;;;;5488681;26;20028;-75
2024/04/12 00:47:27;;;;;;;46.53;27.58;;;13.10;99.90;;;;;;5496076;26;20510;-75
2024/04/12 00:49:55;;;;;;;52.10;29.67;;;13.10;99.90;;;;;;5506718;26;20034;-74
2024/04/12 00:52:27;;;;;;;51.63;28.50;;;13.10;99.90;;;;;;5497994;26;20057;-75
2024/04/12 00:55:01;;;;;;;49.90;30.00;;;13.10;99.90;;;;;;5498484;26;20033;-74
2024/04/12 00:57:28;;;;;;;54.72;31.27;;;13.10;99.90;;;;;;5499931;26;20374;-74
2024/04/12 00:59:55;;;;;;;59.83;33.72;;;13.10;99.90;;;;;;5481587;26;20012;-75
2024/04/12 01:02:22;;;;;;;50.35;31.05;;;13.10;99.90;;;;;;5504948;26;20021;-75
2024/04/12 01:04:50;;;;;;;54.00;32.75;;;13.20;99.90;;;;;;5512751;26;20034;-75
2024/04/12 01:07:18;;;;;;;58.63;34.85;;;13.10;99.90;;;;;;5512161;26;20038;-75
2024/04/12 01:09:45;;;;;;;54.30;34.28;;;13.20;99.90;;;;;;5498686;26;20026;-74
2024/04/12 01:12:17;;;;;;;56.25;33.60;;;13.20;99.90;;;;;;5501148;26;20359;-74
2024/04/12 01:14:45;;;;;;;52.33;32.03;;;13.20;99.90;;;;;;5488471;26;20025;-74
2024/04/12 01:17:12;;;;;;;58.70;33.97;;;13.20;99.90;;;;;;5510245;26;20022;-74
2024/04/12 01:19:39;;;;;;;61.25;35.65;;;13.30;99.90;;;;;;5508516;26;20033;-75
2024/04/12 01:22:06;;;;;;;58.53;33.55;;;13.30;99.90;;;;;;5501335;26;20035;-75
2024/04/12 01:24:38;;;;;;;54.08;34.45;;;13.30;99.90;;;;;;5492602;26;20026;-75
2024/04/12 01:27:06;;;;;;;53.75;34.33;;;13.30;99.90;;;;;;5500673;26;20041;-74
2024/04/12 01:29:33;;;;;;;51.15;35.40;;;13.30;99.90;;;;;;5501350;26;20026;-74
2024/04/12 01:32:03;;;;;;;61.67;36.55;;;13.30;99.90;;;;;;5500785;26;20031;-74
2024/04/12 01:34:31;;;;;;;56.50;36.10;;;13.30;99.90;;;;;;5493310;26;20347;-76
2024/04/12 01:37:00;;;;;;;57.70;36.53;;;13.30;99.90;;;;;;5507042;26;20029;-75
2024/04/12 01:39:28;;;;;;;55.47;36.42;;;13.40;99.90;;;;;;5494163;26;20037;-75
2024/04/12 01:41:55;;;;;;;50.20;34.90;;;13.40;99.90;;;;;;5504352;26;20485;-74
2024/04/12 01:44:24;;;;;;;55.65;36.42;;;13.40;99.90;;;;;;5510846;26;20034;-75
2024/04/12 01:46:52;;;;;;;49.97;33.97;;;13.30;99.90;;;;;;5512967;26;20018;-74
2024/04/12 01:49:22;;;;;;;56.25;36.70;;;13.40;99.90;;;;;;5506460;26;20057;-74
2024/04/12 01:51:49;;;;;;;44.80;34.22;;;13.40;99.90;;;;;;5509335;26;20029;-74
2024/04/12 01:54:19;;;;;;;44.28;32.17;;;13.40;99.90;;;;;;5502274;26;20042;-74
2024/04/12 01:56:50;;;;;;;42.85;32.08;;;13.40;99.90;;;;;;5508265;26;20056;-74
2024/04/12 01:59:21;;;;;;;41.05;31.63;;;13.30;99.90;;;;;;5506036;26;20022;-74
2024/04/12 02:01:52;;;;;;;36.42;29.83;;;13.40;99.90;;;;;;5508291;26;20549;-74
2024/04/12 02:04:21;;;;;;;35.55;29.90;;;13.40;99.90;;;;;;5477328;26;20021;-74
2024/04/12 02:06:49;;;;;;;41.38;31.00;;;13.40;99.90;;;;;;5506145;26;20486;-74
2024/04/12 02:09:17;;;;;;;36.85;30.98;;;13.40;99.90;;;;;;5498302;26;20438;-73
2024/04/12 02:11:45;;;;;;;36.63;30.33;;;13.40;99.90;;;;;;5497100;26;20040;-74
2024/04/12 02:14:15;;;;;;;35.90;29.50;;;13.40;99.90;;;;;;5470995;26;20037;-74
2024/04/12 02:16:42;;;;;;;34.58;28.10;;;13.40;99.90;;;;;;5497137;26;20382;-74
2024/04/12 02:19:13;;;;;;;30.58;26.80;;;13.40;99.90;;;;;;5506620;26;20031;-74
2024/04/12 02:21:40;;;;;;;31.20;26.02;;;13.40;99.90;;;;;;5506730;26;20025;-74
2024/04/12 02:24:11;;;;;;;28.52;25.00;;;13.40;99.90;;;;;;5498892;26;20034;-75
2024/04/12 02:26:42;;;;;;;30.55;24.73;;;13.40;99.90;;;;;;5494068;26;20033;-74
2024/04/12 02:29:09;;;;;;;29.02;25.35;;;13.40;99.90;;;;;;5502952;26;20026;-74
2024/04/12 02:31:36;;;;;;;30.73;25.85;;;13.40;99.90;;;;;;5501999;26;20033;-74
2024/04/12 02:34:03;;;;;;;30.13;25.58;;;13.40;99.90;;;;;;5500627;26;20030;-74
2024/04/12 02:36:33;;;;;;;29.50;26.35;;;13.50;99.90;;;;;;5496628;26;20487;-74
2024/04/12 02:39:06;;;;;;;30.58;26.23;;;13.40;99.90;;;;;;5505171;26;20029;-74
2024/04/12 02:41:37;;;;;;;29.45;26.20;;;13.40;99.90;;;;;;5510388;26;20032;-74
2024/04/12 02:44:06;;;;;;;34.47;27.38;;;13.40;99.90;;;;;;5507328;26;20022;-75
2024/04/12 02:46:33;;;;;;;32.33;27.10;;;13.40;99.90;;;;;;5502450;26;20031;-74
2024/04/12 02:49:04;;;;;;;31.20;27.70;;;13.40;99.90;;;;;;5500045;26;20025;-75
2024/04/12 02:51:31;;;;;;;30.65;27.35;;;13.50;99.90;;;;;;5508622;26;20017;-75
2024/04/12 02:53:58;;;;;;;29.35;26.15;;;13.50;99.90;;;;;;5510849;26;20386;-75
2024/04/12 02:56:25;;;;;;;27.75;24.90;;;13.50;99.90;;;;;;5497539;26;20029;-75
2024/04/12 02:58:53;;;;;;;25.45;22.80;;;13.50;99.90;;;;;;5500309;26;20037;-74
2024/04/12 03:01:24;;;;;;;23.65;20.30;;;13.50;99.90;;;;;;5497422;26;20026;-74
2024/04/12 03:03:58;;;;;;;20.40;18.20;;;13.50;99.90;;;;;;5500821;26;20376;-74
2024/04/12 03:06:32;;;;;;;21.10;17.43;;;13.50;99.90;;;;;;5501744;26;20025;-74
2024/04/12 03:09:05;;;;;;;18.90;17.00;;;13.50;99.90;;;;;;5491261;26;20033;-74
2024/04/12 03:11:35;;;;;;;18.85;16.88;;;13.50;99.90;;;;;;5500526;26;20140;-74
2024/04/12 03:14:08;;;;;;;18.95;16.95;;;13.50;99.90;;;;;;5492419;26;20029;-74
2024/04/12 03:16:48;;;;;;;19.52;17.52;;;13.50;99.90;;;;;;5499234;26;20029;-75
2024/04/12 03:19:15;;;;;;;19.15;17.15;;;13.50;99.90;;;;;;5492034;26;20029;-75
2024/04/12 03:21:43;;;;;;;19.88;17.55;;;13.40;99.90;;;;;;5504009;26;20394;-75
2024/04/12 03:24:10;;;;;;;20.02;16.65;;;13.40;99.90;;;;;;5498829;26;20026;-74
2024/04/12 03:26:37;;;;;;;19.63;17.42;;;13.50;99.90;;;;;;5467898;26;20022;-74
2024/04/12 03:29:05;;;;;;;20.92;18.35;;;13.40;99.90;;;;;;5492350;26;20041;-74
2024/04/12 03:31:37;;;;;;;21.67;19.52;;;13.50;99.90;;;;;;5471134;26;20364;-74
2024/04/12 03:34:08;;;;;;;22.83;20.42;;;13.50;99.90;;;;;;5501916;26;20027;-75
2024/04/12 03:42:08;;;;;;;26.88;23.95;;;13.50;99.90;;;;;;5510299;26;19997;-75
2024/04/12 03:44:36;;;;;;;27.00;24.25;;;13.50;99.90;;;;;;5496859;26;20036;-74
2024/04/12 03:47:10;;;;;;;24.52;22.02;;;13.50;99.90;;;;;;5505476;26;20041;-74
2024/04/12 03:49:40;;;;;;;;;;;13.50;99.90;;;;;;5494116;26;20030;-74
2024/04/12 03:52:12;;;;;;;21.40;19.10;;;13.50;99.90;;;;;;5505105;26;20302;-75
2024/04/12 03:54:41;;;;;;;21.25;19.02;;;13.50;99.90;;;;;;5477238;26;20038;-74
2024/04/12 03:57:09;;;;;;;23.65;21.33;;;13.50;99.90;;;;;;5491188;26;20061;-74
2024/04/12 03:59:38;;;;;;;23.25;20.73;;;13.50;99.90;;;;;;5504409;26;20046;-74
2024/04/12 04:02:08;;;;;;;23.65;21.17;;;13.50;99.90;;;;;;5495663;26;20030;-74
2024/04/12 04:04:38;;;;;;;23.02;20.08;;;13.50;99.90;;;;;;5489944;26;20031;-74
2024/04/12 04:07:06;;;;;;;22.80;20.38;;;13.50;99.90;;;;;;5491980;26;20365;-74
2024/04/12 04:09:33;;;;;;;22.48;19.95;;;13.50;99.90;;;;;;5485658;26;20442;-74
2024/04/12 04:12:01;;;;;;;21.80;18.45;;;13.40;99.90;;;;;;5469280;26;20001;-75
2024/04/12 04:14:28;;;;;;;17.42;15.57;;;13.50;99.90;;;;;;5503756;26;20031;-75
2024/04/12 04:17:02;;;;;;;15.23;13.65;;;13.40;99.90;;;;;;5503416;26;20048;-75
2024/04/12 04:19:39;;;;;;;14.38;12.98;;;13.40;99.90;;;;;;5508586;26;20017;-74
2024/04/12 04:22:39;;;;;;;13.10;11.88;;;13.40;99.90;;;;;;5504430;26;20025;-75
2024/04/12 04:25:10;;;;;;;14.77;11.95;;;13.40;99.90;;;;;;5510671;26;20029;-75
2024/04/12 04:27:38;;;;;;;16.95;13.07;;;13.40;99.90;;;;;;5506418;26;20034;-75
2024/04/12 04:30:06;;;;;;;13.48;11.50;;;13.40;99.90;;;;;;5503631;26;20029;-75
2024/04/12 04:32:33;;;;;;;14.60;12.40;;;13.40;99.90;;;;;;5505853;26;20025;-75
2024/04/12 04:35:08;;;;;;;13.27;11.90;;;13.40;99.90;;;;;;5505653;26;20022;-75
2024/04/12 04:37:39;;;;;;;15.48;12.65;;;13.40;99.90;;;;;;5485205;26;20028;-74
2024/04/12 04:40:19;;;;;;;14.93;8.88;;;13.30;99.90;;;;;;5510398;26;20029;-75
2024/04/12 04:42:47;;;;;;;14.70;12.90;;;13.40;99.90;;;;;;5507361;26;20009;-75
2024/04/12 04:45:18;;;;;;;17.88;13.95;;;13.30;99.90;;;;;;5501803;26;20037;-75
2024/04/12 04:47:45;;;;;;;17.15;15.23;;;13.40;99.90;;;;;;5501675;26;20033;-75
2024/04/12 04:50:17;;;;;;;17.60;15.05;;;13.40;99.90;;;;;;5499831;26;20029;-75
2024/04/12 04:52:47;;;;;;;18.67;15.45;;;13.30;99.90;;;;;;5503999;26;20025;-75
2024/04/12 04:55:14;;;;;;;17.38;13.77;;;13.30;99.90;;;;;;5467971;26;20034;-75
2024/04/12 04:57:44;;;;;;;17.40;14.93;;;13.30;99.90;;;;;;5494480;26;20115;-75
2024/04/12 05:00:18;;;;;;;16.95;14.73;;;13.30;99.90;;;;;;5503978;26;20026;-75
2024/04/12 05:02:52;;;;;;;16.60;13.35;;;13.30;99.90;;;;;;5497579;26;20337;-75
2024/04/12 05:05:23;;;;;;;14.50;12.48;;;13.20;99.90;;;;;;5495452;26;20026;-75
2024/04/12 05:07:52;;;;;;;17.35;14.05;;;13.20;99.90;;;;;;5508761;26;20060;-74
2024/04/12 05:10:20;;;;;;;20.55;14.00;;;13.20;99.90;;;;;;5505300;26;20033;-75
2024/04/12 05:12:49;;;;;;;15.88;13.63;;;13.20;99.90;;;;;;5509861;26;20386;-75
2024/04/12 05:18:03;;;;;;;18.83;14.45;;;13.10;99.90;;;;;;5497621;26;20029;-75
2024/04/12 05:20:40;;;;;;;16.98;13.18;;;13.10;99.90;;;;;;5482896;26;20008;-74
2024/04/12 05:23:12;;;;;;;16.42;12.88;;;13.10;99.90;;;;;;5497918;26;20025;-74
2024/04/12 05:25:40;;;;;;;19.10;12.68;;;13.10;99.90;;;;;;5503481;26;20021;-75
2024/04/12 05:28:07;;;;;;;17.23;13.68;;;13.10;99.90;;;;;;5502266;26;20138;-75
2024/04/12 05:30:43;;;;;;;17.77;12.85;;;13.10;99.90;;;;;;5504438;26;20029;-75
2024/04/12 05:33:11;;;;;;;14.00;11.15;;;13.10;99.90;;;;;;5507982;26;20033;-74
2024/04/12 05:35:40;;;;;;;14.20;11.73;;;13.10;99.90;;;;;;5501305;26;20029;-74
2024/04/12 05:38:07;;;;;;;17.42;11.90;;;13.20;99.90;;;;;;5509028;26;20052;-74
2024/04/12 05:40:45;;;;;;;15.80;12.02;;;13.10;99.90;;;;;;5506460;26;20018;-74
2024/04/12 05:43:15;;;;;;;13.25;10.63;;;13.10;99.90;;;;;;5493439;26;20022;-75
2024/04/12 05:45:55;;;;;;;13.48;10.98;;;13.10;99.90;;;;;;5499255;26;20050;-75
2024/04/12 05:48:23;;;;;;;11.70;10.40;;;13.20;99.90;;;;;;5497711;26;20038;-76
2024/04/12 05:50:53;;;;;;;12.43;10.68;;;13.10;99.90;;;;;;5509406;26;20026;-76
2024/04/12 05:53:26;;;;;;;13.32;10.38;;;13.10;99.90;;;;;;5469034;26;20632;-74
2024/04/12 05:56:20;;;;;;;13.43;10.98;;;13.10;99.90;;;;;;5477577;26;20022;-75
2024/04/12 05:58:42;;;;;;;11.15;9.48;;;13.10;99.90;;;;;;5508387;26;20481;-74
2024/04/12 06:01:10;;;;;;;16.38;10.18;;;13.10;99.90;;;;;;5474440;26;20034;-75
2024/04/12 06:03:48;;;;;;;14.27;10.25;;;13.10;99.90;;;;;;5506875;26;20033;-75
2024/04/12 06:06:15;;;;;;;14.02;10.75;;;13.10;99.90;;;;;;5511259;26;20025;-75
2024/04/12 06:08:44;;;;;;;12.82;10.13;;;13.10;99.90;;;;;;5497178;26;20034;-75
2024/04/12 06:11:13;;;;;;;13.27;10.77;;;13.20;99.90;;;;;;5499830;26;20034;-75
2024/04/12 06:13:40;;;;;;;15.43;11.40;;;13.20;99.90;;;;;;5498383;26;20370;-75
2024/04/12 06:16:07;;;;;;;11.80;10.45;;;13.20;99.90;;;;;;5505549;26;20025;-75
2024/04/12 06:18:34;;;;;;;12.27;10.98;;;13.20;99.90;;;;;;5500133;26;20156;-74
2024/04/12 06:21:01;;;;;;;12.77;10.35;;;13.20;99.90;;;;;;5506702;26;20029;-75
2024/04/12 06:23:29;;;;;;;13.25;11.55;;;13.20;99.90;;;;;;5502320;26;20035;-75
2024/04/12 06:25:58;;;;;;;12.65;10.40;;;13.30;99.90;;;;;;5473820;26;20045;-75
2024/04/12 06:28:25;;;;;;;13.40;10.40;;;13.30;99.90;;;;;;5505219;26;20024;-74
2024/04/12 06:30:59;;;;;;;13.73;10.40;;;13.30;99.90;;;;;;5516278;26;20029;-74
2024/04/12 06:33:28;;;;;;;12.65;10.13;;;13.30;99.90;;;;;;5507834;26;20026;-75
2024/04/12 06:36:04;;;;;;;11.38;10.27;;;13.30;99.90;;;;;;5504353;26;20025;-75
2024/04/12 06:38:32;;;;;;;12.63;10.32;;;13.40;99.90;;;;;;5485083;26;20017;-74
2024/04/12 06:41:14;;;;;;;13.93;9.82;;;13.30;99.90;;;;;;5504481;26;20029;-74
2024/04/12 06:43:42;;;;;;;13.38;10.13;;;13.40;99.90;;;;;;5499715;26;20029;-74
2024/04/12 06:46:11;;;;;;;11.30;9.65;;;13.40;99.90;;;;;;5504786;26;20022;-74
2024/04/12 06:48:42;;;;;;;10.18;9.18;;;13.50;99.90;;;;;;5509282;26;20049;-74
2024/04/12 06:51:12;;;;;;;16.90;11.32;;;13.50;99.90;;;;;;5504309;26;20017;-74
2024/04/12 06:53:44;;;;;;;12.27;10.02;;;13.50;99.90;;;;;;5500250;26;20021;-74
2024/04/12 06:56:15;;;;;;;11.45;9.80;;;13.60;99.90;;;;;;5504305;26;20487;-74
2024/04/12 06:58:46;;;;;;;11.65;9.57;;;13.70;99.90;;;;;;5509079;26;20029;-73
2024/04/12 07:01:13;;;;;;;11.77;10.15;;;13.80;99.90;;;;;;5502049;26;20038;-74
2024/04/12 07:03:46;;;;;;;10.77;9.68;;;13.90;99.90;;;;;;5503125;26;20033;-73
2024/04/12 07:06:18;;;;;;;10.95;9.80;;;14.00;99.90;;;;;;5475354;26;20048;-74
2024/04/12 07:08:50;;;;;;;10.45;8.80;;;14.10;99.90;;;;;;5503070;26;20500;-74
2024/04/12 07:11:21;;;;;;;12.18;10.45;;;14.20;99.90;;;;;;5511641;26;20490;-74
2024/04/12 07:13:53;;;;;;;13.88;9.23;;;14.20;99.90;;;;;;5496566;26;20035;-74
2024/04/12 07:16:20;;;;;;;12.07;10.02;;;14.30;99.90;;;;;;5503452;26;20054;-73
2024/04/12 07:18:49;;;;;;;11.88;9.55;;;14.30;99.90;;;;;;5475909;26;20045;-73
2024/04/12 07:21:16;;;;;;;10.57;9.45;;;14.40;99.90;;;;;;5480726;26;20022;-73
2024/04/12 07:23:48;;;;;;;10.90;9.77;;;14.40;99.90;;;;;;5500771;26;20370;-73
2024/04/12 07:26:24;;;;;;;10.93;9.13;;;14.50;99.90;;;;;;5489193;26;20030;-73
2024/04/12 07:28:59;;;;;;;11.32;8.25;;;14.50;99.90;;;;;;5481209;26;20098;-68
2024/04/12 07:31:34;;;;;;;10.85;9.70;;;14.50;99.90;;;;;;5505383;26;20033;-68
2024/04/12 07:34:01;;;;;;;9.25;8.35;;;14.60;99.90;;;;;;5505562;26;20018;-68
2024/04/12 07:36:33;;;;;;;11.00;8.65;;;14.60;99.90;;;;;;5499897;26;20586;-68
2024/04/12 07:39:09;;;;;;;10.77;8.40;;;14.70;99.90;;;;;;5502414;26;20401;-68
2024/04/12 07:41:43;;;;;;;9.80;8.35;;;14.80;99.90;;;;;;5502478;26;20038;-68
2024/04/12 07:44:13;;;;;;;8.40;7.43;;;14.90;99.90;;;;;;5510161;26;20026;-68
2024/04/12 07:46:49;;;;;;;9.57;7.60;;;14.90;99.90;;;;;;5501999;26;20029;-68
2024/04/12 07:49:16;;;;;;;8.93;7.28;;;15.10;99.90;;;;;;5502062;26;20033;-68
2024/04/12 07:51:45;;;;;;;8.23;6.88;;;15.20;99.90;;;;;;5508142;26;20017;-68
2024/04/12 07:54:12;;;;;;;7.72;6.47;;;15.20;99.90;;;;;;5506678;26;20034;-67
2024/04/12 07:56:43;;;;;;;9.48;6.80;;;15.30;99.90;;;;;;5508651;26;20022;-67
2024/04/12 07:59:15;;;;;;;7.43;6.65;;;15.50;99.90;;;;;;5505457;26;20477;-67
2024/04/12 08:01:45;;;;;;;7.00;6.30;;;15.50;99.90;;;;;;5505387;26;20038;-68
2024/04/12 08:04:23;;;;;;;7.72;6.28;;;15.60;99.90;;;;;;5500677;26;20064;-68
2024/04/12 08:09:24;;;;;;;7.65;6.00;;;15.80;99.90;;;;;;5501525;26;20028;-67
2024/04/12 08:11:59;;;;;;;6.95;5.50;;;15.90;99.90;;;;;;5497770;26;20045;-67
2024/04/12 08:14:26;;;;;;;7.32;5.57;;;16.00;99.90;;;;;;5500356;26;20034;-67
2024/04/12 08:16:55;;;;;;;7.03;5.07;;;16.10;99.90;;;;;;5509133;26;20519;-68
2024/04/12 08:19:22;;;;;;;6.45;5.40;;;16.10;99.90;;;;;;5505328;26;20026;-67
2024/04/12 08:21:54;;;;;;;6.82;5.32;;;16.20;99.90;;;;;;5502292;26;20345;-67
2024/04/12 08:24:24;;;;;;;7.00;4.80;;;16.10;99.90;;;;;;5508077;26;20022;-68
2024/04/12 08:26:52;;;;;;;8.63;4.82;;;16.10;99.90;;;;;;5500438;26;20037;-67
2024/04/12 08:29:23;;;;;;;6.95;5.30;;;16.10;99.90;;;;;;5510381;26;20030;-67
2024/04/12 08:31:59;;;;;;;6.88;5.55;;;16.10;99.90;;;;;;5515472;26;20041;-67
2024/04/12 08:34:28;;;;;;;9.13;6.05;;;16.10;99.90;;;;;;5507910;26;20022;-67
2024/04/12 08:36:56;;;;;;;9.40;6.25;;;16.10;99.90;;;;;;5511382;26;20022;-67
2024/04/12 08:39:25;;;;;;;9.32;5.68;;;16.10;99.90;;;;;;5510356;26;20034;-67
2024/04/12 08:42:01;;;;;;;8.05;6.60;;;16.10;99.90;;;;;;5511458;26;20041;-67
2024/04/12 08:44:31;;;;;;;8.25;6.47;;;16.30;99.90;;;;;;5513741;26;20012;-67
2024/04/12 08:47:15;;;;;;;10.02;6.10;;;16.40;99.90;;;;;;5514707;26;20025;-67
2024/04/12 08:49:48;;;;;;;8.30;5.97;;;16.60;99.90;;;;;;5503745;26;20021;-68
2024/04/12 08:52:29;;;;;;;8.27;5.25;;;16.90;99.90;;;;;;5516632;26;20029;-67
2024/04/12 08:54:59;;;;;;;7.35;5.35;;;17.20;99.90;;;;;;5503793;26;20029;-67
2024/04/12 08:57:26;;;;;;;7.90;5.60;;;17.30;99.90;;;;;;5506033;26;20026;-67
2024/04/12 08:59:58;;;;;;;8.73;5.57;;;17.40;99.90;;;;;;5504616;26;20022;-68
2024/04/12 09:02:48;;;;;;;8.60;6.03;;;17.50;99.90;;;;;;5505733;26;20026;-68
2024/04/12 09:05:21;;;;;;;8.05;5.30;;;17.90;99.90;;;;;;5496794;26;20022;-68
2024/04/12 09:07:52;;;;;;;10.23;5.85;;;18.30;99.90;;;;;;5500320;26;20025;-68
2024/04/12 09:10:19;;;;;;;7.80;5.47;;;18.60;99.90;;;;;;5512320;26;20021;-67
2024/04/12 09:12:49;;;;;;;9.32;5.78;;;18.80;99.90;;;;;;5503548;26;20026;-67
2024/04/12 09:15:34;;;;;;;6.40;4.53;;;18.90;99.90;;;;;;5510420;26;20025;-68
2024/04/12 09:18:07;;;;;;;8.07;4.82;;;18.70;99.90;;;;;;5497277;26;20038;-68
2024/04/12 09:20:38;;;;;;;9.57;4.47;;;18.50;99.90;;;;;;5511249;25;20045;-67
2024/04/12 09:23:15;;;;;;;8.65;4.50;;;18.20;99.90;;;;;;5505395;26;20041;-74
2024/04/12 09:25:55;;;;;;;9.65;4.97;;;17.90;99.90;;;;;;5476381;26;20387;-74
2024/04/12 09:28:27;;;;;;;7.57;4.47;;;17.80;99.90;;;;;;5483834;26;20009;-75
2024/04/12 09:33:51;;;;;;;7.38;3.70;;;17.70;99.90;;;;;;5506825;26;20493;-74
2024/04/12 09:37:04;;;;;;;7.32;4.68;;;17.60;99.90;;;;;;5505342;26;20027;-72
2024/04/12 09:39:57;;;;;;;6.85;3.65;;;17.70;99.90;;;;;;5511779;26;20466;-73
2024/04/12 09:42:47;;;;;;;6.55;3.67;;;17.80;99.90;;;;;;5510266;26;20547;-72
2024/04/12 09:45:21;;;;;;;6.75;3.40;;;17.90;99.90;;;;;;5500333;26;20105;-73
2024/04/12 10:38:36;;;;;;;6.45;2.83;;;21.00;99.90;;;;;;5503113;26;20022;-68
2024/04/12 10:41:07;;;;;;;6.53;3.33;;;21.20;99.90;;;;;;5504668;26;20025;-68
2024/04/12 10:43:41;;;;;;;6.82;3.00;;;21.30;99.90;;;;;;5491316;26;20030;-69
2024/04/12 10:46:11;;;;;;;;;;;21.40;99.90;;;;;;5501195;26;20021;-69
2024/04/12 10:48:43;;;;;;;5.40;2.75;;;21.50;99.90;;;;;;5493368;26;19948;-68
2024/04/12 10:51:16;;;;;;;6.63;2.60;;;21.50;99.90;;;;;;5504127;26;20381;-69
2024/04/12 10:53:46;;;;;;;9.65;3.03;;;21.40;99.90;;;;;;5480675;26;20026;-69
2024/04/12 10:56:18;;;;;;;6.70;2.50;;;21.30;99.90;;;;;;5513870;26;20021;-69
2024/04/12 10:58:51;;;;;;;4.75;2.42;;;21.10;99.90;;;;;;5499766;26;20029;-69
2024/04/12 11:01:22;;;;;;;6.28;3.22;;;21.10;99.90;;;;;;5513656;26;20029;-68
2024/04/12 11:03:59;;;;;;;4.68;2.38;;;21.00;99.90;;;;;;5487480;26;20364;-68
2024/04/12 11:06:31;;;;;;;5.85;2.38;;;20.90;99.90;;;;;;5489614;26;20104;-68
2024/04/12 11:09:00;;;;;;;5.00;2.38;;;20.80;99.90;;;;;;5507761;26;20037;-68
2024/04/12 11:11:32;;;;;;;4.55;2.22;;;20.70;99.90;;;;;;5504259;26;20149;-68
2024/04/12 11:13:59;;;;;;;6.20;2.25;;;20.90;99.90;;;;;;5501995;26;20029;-68
2024/04/12 11:33:19;;;;;;;4.72;2.40;;;22.40;99.90;;;;;;5498716;26;20042;-68
2024/04/12 11:35:49;;;;;;;4.85;2.55;;;22.30;99.90;;;;;;5478069;26;19998;-68
2024/04/12 11:38:17;;;;;;;6.18;1.95;;;22.20;99.90;;;;;;5492779;26;20381;-67
2024/04/12 11:40:45;;;;;;;3.38;1.70;;;22.30;99.90;;;;;;5499960;26;20041;-68
2024/04/12 11:43:13;;;;;;;5.55;1.98;;;22.50;99.90;;;;;;5503584;26;20548;-68
2024/04/12 11:45:41;;;;;;;4.30;1.20;;;22.50;99.90;;;;;;5497569;26;20313;-68
2024/04/12 11:48:14;;;;;;;3.92;0.90;;;22.60;99.90;;;;;;5504697;26;20386;-68
2024/04/12 11:50:42;;;;;;;2.40;0.77;;;22.60;99.90;;;;;;5499690;26;20486;-68
2024/04/12 11:53:10;;;;;;;2.75;0.60;;;22.60;99.70;;;;;;5506308;26;20018;-68
2024/04/12 11:55:40;;;;;;;2.40;1.08;;;22.50;97.80;;;;;;5506643;26;20029;-65
2024/04/12 11:58:10;;;;;;;2.90;0.80;;;22.30;97.40;;;;;;5504521;26;20033;-65
2024/04/12 12:00:40;;;;;;;2.45;0.77;;;22.30;96.10;;;;;;5502713;26;20025;-66
2024/04/12 12:03:15;;;;;;;2.45;0.55;;;22.30;93.80;;;;;;5505196;26;20029;-65
2024/04/12 12:05:42;;;;;;;1.90;0.45;;;22.30;90.90;;;;;;5505169;26;20033;-65
2024/04/12 12:08:15;;;;;;;2.50;0.82;;;22.20;90.80;;;;;;5504961;26;20022;-65
2024/04/12 12:10:45;;;;;;;1.63;0.70;;;22.20;91.00;;;;;;5500859;26;20029;-65
2024/04/12 12:13:13;;;;;;;4.53;0.90;;;22.10;91.80;;;;;;5498880;26;20038;-65
2024/04/12 12:15:43;;;;;;;4.68;0.88;;;22.10;93.40;;;;;;5496639;26;20474;-66
2024/04/12 12:18:27;;;;;;;3.85;0.77;;;22.10;93.10;;;;;;5481370;26;20009;-64
2024/04/12 12:20:56;;;;;;;2.00;0.47;;;22.20;91.20;;;;;;5497059;26;21383;-65
2024/04/12 12:23:24;;;;;;;4.30;0.77;;;22.20;89.40;;;;;;5506941;26;20034;-64
2024/04/12 12:25:52;;;;;;;3.67;0.90;;;22.30;89.20;;;;;;5465008;26;20326;-65
2024/04/12 12:28:19;;;;;;;5.82;1.10;;;22.30;89.40;;;;;;5474200;26;20075;-68
2024/04/12 12:30:54;;;;;;;2.80;0.73;;;22.30;87.40;;;;;;5500129;26;20030;-68
2024/04/12 12:33:24;;;;;;;3.97;0.70;;;22.30;87.10;;;;;;5495901;26;20497;-70
2024/04/12 12:35:54;;;;;;;5.40;0.85;;;22.30;88.40;;;;;;5502054;26;20025;-69
2024/04/12 12:38:22;;;;;;;2.95;0.60;;;22.30;89.10;;;;;;5513535;26;20022;-69
2024/04/12 12:40:49;;;;;;;4.75;0.80;;;22.30;83.90;;;;;;5510209;26;20045;-69
2024/04/12 12:43:16;;;;;;;5.05;0.60;;;22.20;80.80;;;;;;5509446;26;20417;-69
2024/04/12 12:45:43;;;;;;;4.65;0.70;;;22.20;82.20;;;;;;5507582;26;20019;-69
2024/04/12 12:48:20;;;;;;;3.90;0.80;;;22.40;84.00;;;;;;5503555;26;20025;-69
2024/04/12 12:50:50;;;;;;;4.25;0.90;;;22.50;83.90;;;;;;5512671;26;20045;-69
2024/04/12 12:53:20;;;;;;;6.22;1.10;;;22.60;83.30;;;;;;5505226;26;20025;-69
2024/04/12 12:55:47;;;;;;;3.33;0.70;;;22.70;83.10;;;;;;5515478;26;20477;-69
2024/04/12 12:58:18;;;;;;;4.40;0.90;;;22.80;80.60;;;;;;5509571;26;20062;-69
2024/04/12 13:00:47;;;;;;;3.00;0.75;;;22.80;79.00;;;;;;5508665;26;20029;-69
2024/04/12 13:03:17;;;;;;;5.18;0.95;;;22.70;79.50;;;;;;5506874;26;20033;-69
2024/04/12 13:05:45;;;;;;;4.50;0.80;;;22.80;78.30;;;;;;5514107;26;20363;-69
2024/04/12 13:08:16;;;;;;;4.03;1.00;;;22.80;76.80;;;;;;5505877;26;20029;-70
2024/04/12 13:10:47;;;;;;;4.28;0.80;;;22.90;77.60;;;;;;5502893;26;20033;-70
2024/04/12 13:13:21;;;;;;;5.38;1.10;;;23.10;79.00;;;;;;5508659;26;20041;-69
2024/04/12 13:15:58;;;;;;;4.28;1.15;;;23.10;77.10;;;;;;5500280;26;20029;-69
2024/04/12 13:18:29;;;;;;;5.90;1.23;;;22.80;75.40;;;;;;5465243;26;20013;-69
2024/04/12 13:20:57;;;;;;;4.68;0.80;;;22.60;76.70;;;;;;5506899;26;20038;-70
2024/04/12 13:23:25;;;;;;;4.25;1.20;;;22.60;79.00;;;;;;5503264;26;20026;-69
2024/04/12 13:25:55;;;;;;;4.25;0.82;;;22.60;79.50;;;;;;5500342;26;20468;-69
2024/04/12 13:28:22;;;;;;;5.03;0.93;;;22.50;76.10;;;;;;5506268;26;20008;-69
2024/04/12 13:30:49;;;;;;;3.80;1.00;;;22.20;78.40;;;;;;5503455;26;20026;-69
2024/04/12 13:33:16;;;;;;;4.32;1.00;;;22.20;80.50;;;;;;5486818;26;20021;-72
2024/04/12 13:35:43;;;;;;;6.05;0.93;;;22.00;79.50;;;;;;5510821;26;20022;-72
2024/04/12 13:38:12;;;;;;;3.60;0.70;;;21.80;81.10;;;;;;5501959;26;20035;-71
2024/04/12 13:40:45;;;;;;;2.78;0.85;;;21.70;82.60;;;;;;5512252;26;20029;-72
2024/04/12 13:43:16;;;;;;;4.82;1.10;;;21.60;83.20;;;;;;5507657;26;20022;-71
2024/04/12 13:51:18;;;;;;;5.93;0.98;;;21.10;85.30;;;;;;5512579;26;20481;-71
2024/04/12 13:53:46;;;;;;;4.20;1.15;;;21.00;86.00;;;;;;5507904;25;20478;-73
2024/04/12 13:58:56;;;;;;;5.38;1.08;;;21.10;87.60;;;;;;5505449;26;20029;-72
2024/04/12 14:01:24;;;;;;;7.00;1.45;;;21.10;87.50;;;;;;5469850;26;20146;-72
2024/04/12 14:03:54;;;;;;;6.40;1.25;;;21.10;87.90;;;;;;5511777;26;20386;-73
2024/04/12 14:06:25;;;;;;;6.25;1.60;;;21.00;89.90;;;;;;5514323;26;20455;-70
2024/04/12 14:08:53;;;;;;;5.47;1.20;;;20.90;89.10;;;;;;5493740;26;20034;-71
2024/04/12 14:11:20;;;;;;;4.88;1.27;;;20.80;89.80;;;;;;5502207;26;20512;-72
2024/04/12 14:13:47;;;;;;;8.95;2.22;;;20.70;89.90;;;;;;5497426;26;20035;-71
2024/04/12 14:16:16;;;;;;;6.22;2.33;;;20.60;90.40;;;;;;5507028;26;20021;-70
2024/04/12 14:18:44;;;;;;;5.43;1.70;;;20.50;91.40;;;;;;5499734;26;20029;-71
2024/04/12 14:21:14;;;;;;;7.05;1.90;;;20.50;92.40;;;;;;5504064;26;20021;-73
2024/04/12 14:23:43;;;;;;;8.70;5.53;;;20.50;93.00;;;;;;5450269;26;20040;-71